Terminal Aerodrome Forecast
Issued by NWS

Home | Current Version | Previous Version | Text Only | Print | Product List | Glossary On
Versions: 1 2 3 4 5 6 7 8 9 10 11 12 13 14 15 16 17 18
000
FTUS43 KGRB 250538
TAFAUW
TAF
KAUW 250538Z 2506/2606 04006KT P6SM OVC015
     FM251100 06008KT P6SM OVC008
     FM251400 08010G16KT P6SM OVC011
     FM251900 08012G18KT P6SM BKN020 OVC080
     FM260000 08011KT P6SM VCSH SCT008 OVC018
      TEMPO 2602/2606 4SM -RA BR BKN008=

USA.gov is the U.S. government's official web portal to all federal, state and local government web resources and services.